createdAt,value
2018-11-06T00:00:16.725Z,64.00
2018-11-06T00:02:47.157Z,64.10
2018-11-06T00:05:17.841Z,64.50
2018-11-06T00:07:47.082Z,64.80
2018-11-06T00:10:16.347Z,69.10
2018-11-06T00:12:45.575Z,65.10
2018-11-06T00:15:14.840Z,65.70
2018-11-06T00:17:44.152Z,64.80
2018-11-06T00:20:14.451Z,65.10
2018-11-06T00:22:43.730Z,64.90
2018-11-06T00:25:14.041Z,65.90
2018-11-06T00:27:43.300Z,66.20
2018-11-06T00:30:13.605Z,65.70
2018-11-06T00:32:43.359Z,65.80
2018-11-06T00:35:13.849Z,66.20
2018-11-06T00:37:44.025Z,65.80
2018-11-06T00:40:13.428Z,66.30
2018-11-06T00:42:42.657Z,66.00
2018-11-06T00:45:13.338Z,67.70
2018-11-06T00:47:42.647Z,67.00
2018-11-06T00:50:13.129Z,68.20
2018-11-06T00:52:43.186Z,68.20
2018-11-06T00:55:12.753Z,68.20
2018-11-06T00:57:43.178Z,68.90
2018-11-06T01:00:14.754Z,67.80
2018-11-06T01:02:44.000Z,68.10
2018-11-06T01:05:13.967Z,66.90
2018-11-06T01:07:43.959Z,67.00
2018-11-06T01:10:13.191Z,69.50
2018-11-06T01:12:42.422Z,69.50
2018-11-06T01:15:12.920Z,69.40
2018-11-06T01:17:42.981Z,67.80
2018-11-06T01:20:14.253Z,69.00
2018-11-06T01:22:43.540Z,69.80
2018-11-06T01:25:13.422Z,68.40
2018-11-06T01:27:42.940Z,68.10
2018-11-06T01:30:16.901Z,71.30
2018-11-06T01:32:46.520Z,68.70
2018-11-06T01:35:16.226Z,69.70
2018-11-06T01:37:46.124Z,70.90
2018-11-06T01:40:16.760Z,69.80
2018-11-06T01:42:47.723Z,69.20
2018-11-06T01:45:18.016Z,70.10
2018-11-06T01:47:47.245Z,70.70
2018-11-06T01:50:17.647Z,71.20
2018-11-06T01:52:48.404Z,69.90
2018-11-06T01:55:17.654Z,72.50
2018-11-06T01:57:46.921Z,71.60
2018-11-06T02:00:18.854Z,70.40
2018-11-06T02:02:48.348Z,70.60
2018-11-06T02:05:18.298Z,72.50
2018-11-06T02:07:49.645Z,71.80
2018-11-06T02:10:18.961Z,72.50
2018-11-06T02:12:48.345Z,71.60
2018-11-06T02:15:17.649Z,72.90
2018-11-06T02:17:47.119Z,72.70
2018-11-06T02:20:16.746Z,71.90
2018-11-06T02:22:46.516Z,72.20
2018-11-06T02:25:15.946Z,73.80
2018-11-06T02:27:45.800Z,73.30
2018-11-06T02:30:16.302Z,73.60
2018-11-06T02:32:46.197Z,73.30
2018-11-06T02:35:15.447Z,74.20
2018-11-06T02:37:44.711Z,73.50
2018-11-06T02:40:14.956Z,73.90
2018-11-06T02:42:44.259Z,78.00
2018-11-06T02:45:14.476Z,75.30
2018-11-06T02:47:44.047Z,75.40
2018-11-06T02:50:14.089Z,74.50
2018-11-06T02:52:43.811Z,74.90
2018-11-06T02:55:13.518Z,75.40
2018-11-06T02:57:43.209Z,75.90
2018-11-06T03:00:14.580Z,75.00
2018-11-06T03:02:44.572Z,74.60
2018-11-06T03:05:13.826Z,74.40
2018-11-06T03:07:43.397Z,73.50
2018-11-06T03:10:13.485Z,74.10
2018-11-06T03:12:43.441Z,75.90
2018-11-06T03:15:13.663Z,75.90
2018-11-06T03:17:43.037Z,76.20
2018-11-06T03:20:13.101Z,77.90
2018-11-06T03:22:43.106Z,79.30
2018-11-06T03:25:12.382Z,78.30
2018-11-06T03:27:41.685Z,76.60
2018-11-06T03:30:13.708Z,75.90
2018-11-06T03:32:42.968Z,78.50
2018-11-06T03:35:13.172Z,77.60
2018-11-06T03:37:42.515Z,76.60
2018-11-06T03:40:12.377Z,76.60
2018-11-06T03:42:42.488Z,78.70
2018-11-06T03:45:12.564Z,76.20
2018-11-06T03:47:41.801Z,75.70
2018-11-06T03:50:12.398Z,77.00
2018-11-06T03:52:41.762Z,77.90
2018-11-06T03:55:11.550Z,78.00
2018-11-06T03:57:40.794Z,79.80
2018-11-06T04:00:12.486Z,79.90
2018-11-06T04:02:42.367Z,81.30
2018-11-06T04:05:12.164Z,82.50
2018-11-06T04:07:41.425Z,82.20
2018-11-06T04:10:11.578Z,82.50
2018-11-06T04:12:41.271Z,80.60
2018-11-06T04:15:11.846Z,82.60
2018-11-06T04:17:41.755Z,82.20
2018-11-06T04:20:11.229Z,82.20
2018-11-06T04:22:41.172Z,81.00
2018-11-06T04:25:10.685Z,80.60
2018-11-06T04:27:39.926Z,83.90
2018-11-06T04:30:11.473Z,81.50
2018-11-06T04:32:42.037Z,83.70
2018-11-06T04:35:12.277Z,82.60
2018-11-06T04:37:42.120Z,82.90
2018-11-06T04:40:13.041Z,83.10
2018-11-06T04:42:42.378Z,80.00
2018-11-06T04:45:12.432Z,82.20
2018-11-06T04:47:41.848Z,84.00
2018-11-06T04:50:11.538Z,84.10
2018-11-06T04:52:41.377Z,82.40
2018-11-06T04:55:12.213Z,84.40
2018-11-06T04:57:41.812Z,85.40
2018-11-06T05:00:13.511Z,86.40
2018-11-06T05:02:43.108Z,87.60
2018-11-06T05:05:12.873Z,86.10
2018-11-06T05:07:42.185Z,84.10
2018-11-06T05:10:12.806Z,83.00
2018-11-06T05:12:42.024Z,82.90
2018-11-06T05:15:13.073Z,82.60
2018-11-06T05:17:42.336Z,81.20
2018-11-06T05:20:15.065Z,86.30
2018-11-06T05:22:45.164Z,83.20
2018-11-06T05:25:14.709Z,83.50
2018-11-06T05:27:43.941Z,82.70
2018-11-06T05:30:13.405Z,82.10
2018-11-06T05:32:43.983Z,84.20
2018-11-06T05:35:13.305Z,84.30
2018-11-06T05:37:42.528Z,83.00
2018-11-06T05:40:23.029Z,83.70
2018-11-06T05:42:52.240Z,84.30
2018-11-06T05:45:21.507Z,84.90
2018-11-06T05:47:50.768Z,84.70
2018-11-06T05:50:19.993Z,85.60
2018-11-06T05:52:49.256Z,86.40
2018-11-06T05:55:19.037Z,87.70
2018-11-06T05:57:48.285Z,87.10
2018-11-06T06:00:17.547Z,87.20
2018-11-06T06:02:46.788Z,86.60
2018-11-06T06:05:16.071Z,87.00
2018-11-06T06:07:45.444Z,86.80
2018-11-06T06:10:14.753Z,90.10
2018-11-06T06:12:44.128Z,90.20
2018-11-06T06:15:13.354Z,89.30
2018-11-06T06:17:43.061Z,89.50
2018-11-06T06:20:12.414Z,90.20
2018-11-06T06:22:41.872Z,88.20
2018-11-06T06:25:11.093Z,87.70
2018-11-06T06:27:40.326Z,89.70
2018-11-06T06:30:11.997Z,90.10
2018-11-06T06:32:41.453Z,90.20
2018-11-06T06:35:11.324Z,88.10
2018-11-06T06:37:40.873Z,88.30
2018-11-06T06:40:12.776Z,87.30
2018-11-06T06:42:42.334Z,87.80
2018-11-06T06:45:13.577Z,88.20
2018-11-06T06:47:43.050Z,87.70
2018-11-06T06:50:15.192Z,89.80
2018-11-06T06:52:45.076Z,87.60
2018-11-06T06:55:15.076Z,88.50
2018-11-06T06:57:45.742Z,89.30
2018-11-06T07:00:16.773Z,89.90
2018-11-06T07:02:46.037Z,88.90
2018-11-06T07:05:16.803Z,88.80
2018-11-06T07:07:46.033Z,88.30
2018-11-06T07:10:16.956Z,90.20
2018-11-06T07:12:46.977Z,90.80
2018-11-06T07:15:17.285Z,90.30
2018-11-06T07:17:47.664Z,90.10
2018-11-06T07:20:19.056Z,89.50
2018-11-06T07:22:48.325Z,90.20
2018-11-06T07:25:17.565Z,90.10
2018-11-06T07:27:47.693Z,89.50
2018-11-06T07:30:18.248Z,89.80
2018-11-06T07:32:47.817Z,91.30
2018-11-06T07:35:18.169Z,90.40
2018-11-06T07:37:48.380Z,90.50
2018-11-06T07:40:18.928Z,91.50
2018-11-06T07:42:48.140Z,90.70
2018-11-06T07:45:18.860Z,90.70
2018-11-06T07:47:48.093Z,91.10
2018-11-06T07:50:17.732Z,91.10
2018-11-06T07:52:47.033Z,91.40
2018-11-06T07:55:17.772Z,90.80
2018-11-06T07:57:47.006Z,91.60
2018-11-06T08:00:20.396Z,92.00
2018-11-06T08:02:50.397Z,91.20
2018-11-06T08:05:19.939Z,91.50
2018-11-06T08:07:49.797Z,92.70
2018-11-06T08:10:19.048Z,92.40
2018-11-06T08:12:49.774Z,92.80
2018-11-06T08:15:19.480Z,93.10
2018-11-06T08:17:48.982Z,92.80
2018-11-06T08:20:18.360Z,93.10
2018-11-06T08:22:48.089Z,93.00
2018-11-06T08:25:17.884Z,93.20
2018-11-06T08:27:47.258Z,93.10
2018-11-06T08:30:17.529Z,92.20
2018-11-06T08:32:48.316Z,92.10
2018-11-06T08:35:19.206Z,92.20
2018-11-06T08:37:49.724Z,92.90
2018-11-06T08:40:18.953Z,93.10
2018-11-06T08:42:48.753Z,92.90
2018-11-06T08:45:18.022Z,92.10
2018-11-06T08:47:47.253Z,91.40
2018-11-06T08:50:17.895Z,91.40
2018-11-06T08:52:47.188Z,90.90
2018-11-06T08:55:17.788Z,90.80
2018-11-06T08:57:48.472Z,91.10
2018-11-06T09:00:19.040Z,91.90
2018-11-06T09:02:49.509Z,92.10
2018-11-06T09:05:19.459Z,92.60
2018-11-06T09:07:48.702Z,94.00
2018-11-06T09:10:18.329Z,92.30
2018-11-06T09:12:49.354Z,92.50
2018-11-06T09:15:19.304Z,93.20
2018-11-06T09:17:49.565Z,93.40
2018-11-06T09:20:18.801Z,93.10
2018-11-06T09:22:49.742Z,91.50
2018-11-06T09:25:19.533Z,92.90
2018-11-06T09:27:49.769Z,91.70
2018-11-06T09:30:20.197Z,94.40
2018-11-06T09:32:49.665Z,90.40
2018-11-06T09:35:18.937Z,87.70
2018-11-06T09:37:48.733Z,91.80
2018-11-06T09:40:19.127Z,84.30
2018-11-06T09:42:48.918Z,83.50
2018-11-06T09:45:18.485Z,81.90
2018-11-06T09:47:47.676Z,85.00
2018-11-06T09:50:18.618Z,86.00
2018-11-06T09:52:48.297Z,86.40
2018-11-06T09:55:18.405Z,85.10
2018-11-06T09:57:48.077Z,82.00
2018-11-06T10:00:18.735Z,78.60
2018-11-06T10:02:47.941Z,77.20
2018-11-06T10:05:17.999Z,79.60
2018-11-06T10:07:47.297Z,77.20
2018-11-06T10:10:19.780Z,78.90
2018-11-06T10:12:49.352Z,76.50
2018-11-06T10:15:20.458Z,77.40
2018-11-06T10:17:52.228Z,74.50
2018-11-06T10:20:22.276Z,73.40
2018-11-06T10:22:51.522Z,74.00
2018-11-06T10:25:20.935Z,72.70
2018-11-06T10:27:50.184Z,71.80
2018-11-06T10:30:19.992Z,71.90
2018-11-06T10:32:49.277Z,72.00
2018-11-06T10:35:18.561Z,71.00
2018-11-06T10:37:47.801Z,72.80
2018-11-06T10:40:22.632Z,68.60
2018-11-06T10:42:52.294Z,70.20
2018-11-06T10:45:21.581Z,67.90
2018-11-06T10:47:50.942Z,65.20
2018-11-06T10:50:20.241Z,66.90
2018-11-06T10:52:49.736Z,64.00
2018-11-06T10:55:19.077Z,63.20
2018-11-06T10:57:48.425Z,66.40
2018-11-06T11:00:23.212Z,66.00
2018-11-06T11:02:57.597Z,67.20
2018-11-06T11:05:28.221Z,62.30
2018-11-06T11:07:57.485Z,63.40
2018-11-06T11:10:26.729Z,65.50
2018-11-06T11:12:55.985Z,62.20
2018-11-06T11:15:29.685Z,68.40
2018-11-06T11:17:59.157Z,63.80
2018-11-06T11:20:30.543Z,63.40
2018-11-06T11:22:59.797Z,60.90
2018-11-06T11:25:29.198Z,61.50
2018-11-06T11:27:58.471Z,63.40
2018-11-06T11:30:29.084Z,63.10
2018-11-06T11:32:58.968Z,63.80
2018-11-06T11:35:29.057Z,63.60
2018-11-06T11:37:59.653Z,64.70
2018-11-06T11:40:30.161Z,65.00
2018-11-06T11:43:00.101Z,64.50
2018-11-06T11:45:29.373Z,68.00
2018-11-06T11:47:58.627Z,68.50
2018-11-06T11:50:27.897Z,63.90
2018-11-06T11:52:57.124Z,66.50
2018-11-06T11:55:26.361Z,65.80
2018-11-06T11:57:56.071Z,65.60
2018-11-06T12:00:27.823Z,64.30
2018-11-06T12:02:57.750Z,61.00
2018-11-06T12:05:27.012Z,65.00
2018-11-06T12:07:56.260Z,58.40
2018-11-06T12:10:25.546Z,59.60
2018-11-06T12:12:55.700Z,59.70
2018-11-06T12:15:25.070Z,59.20
2018-11-06T12:17:54.544Z,59.10
2018-11-06T12:20:23.783Z,59.10
2018-11-06T12:22:54.107Z,58.40
2018-11-06T12:25:23.664Z,57.90
2018-11-06T12:27:52.672Z,56.80
2018-11-06T12:30:21.895Z,57.20
2018-11-06T12:32:51.267Z,57.80
2018-11-06T12:35:20.816Z,58.00
2018-11-06T12:37:50.057Z,58.50
2018-11-06T12:40:19.741Z,58.30
2018-11-06T12:42:51.135Z,58.20
2018-11-06T12:45:20.538Z,58.80
2018-11-06T12:47:50.739Z,59.10
2018-11-06T12:50:20.021Z,59.20
2018-11-06T12:52:49.340Z,59.00
2018-11-06T12:55:18.889Z,59.20
2018-11-06T12:57:48.125Z,59.50
2018-11-06T13:00:19.556Z,59.50
2018-11-06T13:02:49.053Z,59.50
2018-11-06T13:05:19.250Z,59.70
2018-11-06T13:07:48.936Z,59.80
2018-11-06T13:10:18.274Z,59.80
2018-11-06T13:12:51.193Z,59.90
2018-11-06T13:15:21.551Z,60.00
2018-11-06T13:17:50.776Z,60.30
2018-11-06T13:20:20.105Z,60.40
2018-11-06T13:22:49.350Z,60.30
2018-11-06T13:25:18.601Z,60.90
2018-11-06T13:27:47.884Z,61.10
2018-11-06T13:30:18.301Z,61.00
2018-11-06T13:32:48.524Z,60.90
2018-11-06T13:35:18.044Z,60.70
2018-11-06T13:37:47.316Z,62.20
2018-11-06T13:40:16.935Z,60.90
2018-11-06T13:42:46.932Z,61.20
2018-11-06T13:45:20.161Z,61.50
2018-11-06T13:47:49.340Z,61.30
2018-11-06T13:50:18.574Z,61.20
2018-11-06T13:52:47.812Z,61.50
2018-11-06T13:55:17.473Z,62.00
2018-11-06T13:57:47.172Z,61.50
2018-11-06T14:00:18.144Z,61.20
2018-11-06T14:02:47.389Z,61.00
2018-11-06T14:05:16.912Z,61.20
2018-11-06T14:07:46.368Z,61.60
2018-11-06T14:10:15.688Z,61.70
2018-11-06T14:12:45.517Z,61.50
2018-11-06T14:15:14.805Z,61.30
2018-11-06T14:17:44.109Z,61.30
2018-11-06T14:20:14.695Z,61.10
2018-11-06T14:22:44.492Z,61.70
2018-11-06T14:25:13.773Z,61.20
2018-11-06T14:27:43.134Z,61.20
2018-11-06T14:30:14.555Z,61.40
2018-11-06T14:32:43.938Z,61.70
2018-11-06T14:35:14.385Z,61.90
2018-11-06T14:37:44.701Z,61.80
2018-11-06T14:40:14.547Z,61.60
2018-11-06T14:42:44.508Z,61.50
2018-11-06T14:45:15.270Z,60.80
2018-11-06T14:47:44.797Z,61.70
2018-11-06T14:50:14.277Z,62.20
2018-11-06T14:52:43.536Z,61.80
2018-11-06T14:55:14.080Z,62.00
2018-11-06T14:57:43.333Z,61.70
2018-11-06T15:00:16.145Z,61.90
2018-11-06T15:02:51.794Z,61.80
2018-11-06T15:05:22.119Z,62.10
2018-11-06T15:07:51.659Z,62.00
2018-11-06T15:10:20.949Z,61.80
2018-11-06T15:12:50.371Z,62.60
2018-11-06T15:15:19.468Z,62.00
2018-11-06T15:17:49.027Z,62.30
2018-11-06T15:20:20.060Z,61.60
2018-11-06T15:22:49.316Z,61.60
2018-11-06T15:25:19.126Z,61.80
2018-11-06T15:27:48.393Z,62.10
2018-11-06T15:30:18.769Z,61.90
2018-11-06T15:32:48.071Z,62.00
2018-11-06T15:35:18.897Z,62.20
2018-11-06T15:37:48.181Z,62.30
2018-11-06T15:40:18.713Z,63.10
2018-11-06T15:42:48.246Z,63.80
2018-11-06T15:45:18.609Z,65.10
2018-11-06T15:47:48.556Z,65.90
2018-11-06T15:50:19.180Z,64.30
2018-11-06T15:52:49.341Z,64.40
2018-11-06T15:55:18.845Z,64.30
2018-11-06T15:57:48.181Z,63.90
2018-11-06T16:00:19.746Z,63.80
2018-11-06T16:02:49.438Z,64.00
2018-11-06T16:05:18.721Z,64.20
2018-11-06T16:07:48.504Z,65.80
2018-11-06T16:10:20.005Z,66.10
2018-11-06T16:12:49.308Z,69.00
2018-11-06T16:15:18.571Z,68.90
2018-11-06T16:17:47.916Z,67.30
2018-11-06T16:20:18.568Z,68.30
2018-11-06T16:22:47.853Z,66.50
2018-11-06T16:25:18.093Z,66.80
2018-11-06T16:27:47.731Z,68.20
2018-11-06T16:30:19.468Z,67.10
2018-11-06T16:32:48.857Z,68.70
2018-11-06T16:35:19.405Z,66.90
2018-11-06T16:37:48.945Z,69.20
2018-11-06T16:40:18.620Z,69.60
2018-11-06T16:42:48.625Z,70.60
2018-11-06T16:45:20.320Z,69.30
2018-11-06T16:47:50.825Z,68.70
2018-11-06T16:50:20.433Z,68.80
2018-11-06T16:52:50.069Z,69.20
2018-11-06T16:55:20.193Z,68.30
2018-11-06T16:57:49.462Z,69.60
2018-11-06T17:00:21.768Z,68.50
2018-11-06T17:02:51.245Z,68.30
2018-11-06T17:05:20.810Z,68.40
2018-11-06T17:07:50.606Z,69.30
2018-11-06T17:10:20.473Z,70.00
2018-11-06T17:12:50.052Z,69.90
2018-11-06T17:15:21.561Z,70.10
2018-11-06T17:17:53.111Z,70.50
2018-11-06T17:20:22.993Z,69.40
2018-11-06T17:22:52.385Z,69.30
2018-11-06T17:25:22.397Z,70.00
2018-11-06T17:27:51.764Z,70.10
2018-11-06T17:30:21.382Z,69.40
2018-11-06T17:32:51.049Z,70.10
2018-11-06T17:35:22.229Z,69.70
2018-11-06T17:37:51.820Z,69.50
2018-11-06T17:40:22.764Z,70.60
2018-11-06T17:42:52.792Z,70.20
2018-11-06T17:45:24.492Z,71.60
2018-11-06T17:47:56.740Z,71.00
2018-11-06T17:50:26.440Z,70.60
2018-11-06T17:52:56.847Z,71.10
2018-11-06T17:55:27.625Z,72.00
2018-11-06T17:57:56.883Z,70.80
2018-11-06T18:00:29.444Z,71.00
2018-11-06T18:02:58.932Z,71.50
2018-11-06T18:05:28.276Z,71.10
2018-11-06T18:07:57.893Z,72.20
2018-11-06T18:10:27.501Z,71.40
2018-11-06T18:12:58.008Z,72.30
2018-11-06T18:15:27.599Z,72.50
2018-11-06T18:17:56.920Z,74.60
2018-11-06T18:20:26.188Z,72.70
2018-11-06T18:22:55.526Z,74.30
2018-11-06T18:25:24.946Z,73.70
2018-11-06T18:27:54.436Z,73.20
2018-11-06T18:30:24.099Z,73.00
2018-11-06T18:32:57.334Z,73.30
2018-11-06T18:35:26.641Z,73.70
2018-11-06T18:37:56.273Z,73.00
2018-11-06T18:40:25.852Z,73.90
2018-11-06T18:42:55.971Z,73.60
2018-11-06T18:45:25.348Z,74.50
2018-11-06T18:47:55.136Z,74.30
2018-11-06T18:50:24.645Z,73.90
2018-11-06T18:52:54.163Z,73.50
2018-11-06T18:55:23.476Z,74.60
2018-11-06T18:57:54.052Z,73.80
2018-11-06T19:00:25.109Z,74.00
2018-11-06T19:02:54.559Z,74.30
2018-11-06T19:05:24.525Z,73.90
2018-11-06T19:07:54.922Z,73.80
2018-11-06T19:10:24.220Z,73.70
2018-11-06T19:12:54.733Z,75.70
2018-11-06T19:15:24.817Z,75.50
2018-11-06T19:17:54.097Z,74.80
2018-11-06T19:20:24.190Z,74.90
2018-11-06T19:22:53.466Z,75.00
2018-11-06T19:25:22.693Z,76.20
2018-11-06T19:27:52.028Z,76.10
2018-11-06T19:30:22.575Z,75.50
2018-11-06T19:32:52.269Z,75.20
2018-11-06T19:35:21.539Z,76.30
2018-11-06T19:37:51.010Z,76.90
2018-11-06T19:40:22.689Z,80.40
2018-11-06T19:42:52.261Z,78.50
2018-11-06T19:45:21.516Z,78.70
2018-11-06T19:47:51.377Z,77.20
2018-11-06T19:50:20.733Z,77.20
2018-11-06T19:52:50.402Z,76.60
2018-11-06T19:55:19.640Z,78.20
2018-11-06T19:57:48.877Z,79.00
2018-11-06T20:00:19.572Z,85.70
2018-11-06T20:02:50.118Z,82.10
2018-11-06T20:05:20.148Z,80.30
2018-11-06T20:07:50.305Z,79.50
2018-11-06T20:10:22.228Z,80.90
2018-11-06T20:12:54.528Z,81.30
2018-11-06T20:15:24.005Z,81.40
2018-11-06T20:17:57.004Z,82.40
2018-11-06T20:20:34.064Z,81.30
2018-11-06T20:23:05.241Z,83.10
2018-11-06T20:25:34.820Z,83.40
2018-11-06T20:28:04.413Z,84.20
2018-11-06T20:30:36.101Z,82.60
2018-11-06T20:33:05.986Z,82.20
2018-11-06T20:35:38.027Z,82.10
2018-11-06T20:38:07.690Z,82.40
2018-11-06T20:40:37.111Z,83.40
2018-11-06T20:43:08.055Z,81.80
2018-11-06T20:45:37.249Z,83.80
2018-11-06T20:48:06.526Z,83.50
2018-11-06T20:50:36.189Z,83.00
2018-11-06T20:53:05.513Z,82.00
2018-11-06T20:55:34.915Z,82.50
2018-11-06T20:58:04.072Z,82.40
2018-11-06T21:00:33.412Z,82.60
2018-11-06T21:03:03.593Z,82.60
2018-11-06T21:05:33.062Z,82.50
2018-11-06T21:08:02.497Z,83.10
2018-11-06T21:10:33.009Z,83.10
2018-11-06T21:13:02.590Z,83.80
2018-11-06T21:15:31.857Z,86.20
2018-11-06T21:18:01.239Z,85.70
2018-11-06T21:20:30.437Z,86.70
2018-11-06T21:22:59.820Z,86.10
2018-11-06T21:25:29.211Z,87.50
2018-11-06T21:27:58.512Z,88.40
2018-11-06T21:30:27.745Z,88.00
2018-11-06T21:32:57.017Z,89.50
2018-11-06T21:35:26.345Z,87.90
2018-11-06T21:37:55.585Z,88.40
2018-11-06T21:40:24.829Z,89.10
2018-11-06T21:42:54.103Z,88.20
2018-11-06T21:45:23.348Z,87.00
2018-11-06T21:47:52.577Z,87.20
2018-11-06T21:50:22.587Z,87.90
2018-11-06T21:52:51.805Z,88.90
2018-11-06T21:55:21.098Z,87.90
2018-11-06T21:57:50.431Z,87.70
2018-11-06T22:00:20.898Z,87.10
2018-11-06T22:02:50.133Z,86.60
2018-11-06T22:05:20.656Z,88.20
2018-11-06T22:07:49.946Z,88.70
2018-11-06T22:10:20.341Z,87.80
2018-11-06T22:12:49.906Z,86.90
2018-11-06T22:15:19.761Z,89.20
2018-11-06T22:17:49.009Z,89.40
2018-11-06T22:20:19.211Z,89.60
2018-11-06T22:22:48.801Z,90.00
2018-11-06T22:25:18.097Z,89.60
2018-11-06T22:27:47.375Z,89.90
2018-11-06T22:30:17.221Z,90.20
2018-11-06T22:32:46.888Z,89.80
2018-11-06T22:35:17.780Z,89.80
2018-11-06T22:37:47.017Z,89.40
2018-11-06T22:40:17.170Z,89.40
2018-11-06T22:42:46.501Z,88.60
2018-11-06T22:45:16.916Z,90.10
2018-11-06T22:47:46.174Z,89.40
2018-11-06T22:50:16.722Z,89.40
2018-11-06T22:52:47.264Z,88.90
2018-11-06T22:55:16.624Z,89.30
2018-11-06T22:57:46.057Z,89.40
2018-11-06T23:00:17.893Z,91.40
2018-11-06T23:02:47.151Z,90.70
2018-11-06T23:05:16.384Z,90.60
2018-11-06T23:07:50.913Z,90.20
2018-11-06T23:10:20.205Z,90.80
2018-11-06T23:12:49.460Z,90.20
2018-11-06T23:15:18.988Z,90.50
2018-11-06T23:17:48.445Z,90.80
2018-11-06T23:20:17.870Z,90.40
2018-11-06T23:22:47.128Z,90.00
2018-11-06T23:25:16.389Z,90.30
2018-11-06T23:27:45.603Z,90.50
2018-11-06T23:30:15.576Z,90.30
2018-11-06T23:32:44.849Z,90.40
2018-11-06T23:35:14.097Z,90.50
2018-11-06T23:37:43.445Z,90.60
2018-11-06T23:40:12.717Z,91.30
2018-11-06T23:42:42.185Z,91.10
2018-11-06T23:45:11.456Z,91.10
2018-11-06T23:47:40.705Z,90.80
2018-11-06T23:50:10.498Z,90.80
2018-11-06T23:52:40.144Z,91.40
2018-11-06T23:55:10.352Z,91.10
2018-11-06T23:57:39.637Z,91.00
